Time;durP1;ratioP1;P1;durP2;ratioP2;P2;SDS_P1;SDS_P2;PMS_P1;PMS_P2;Temp;Humidity;BMP_temperature;BMP_pressure;BME280_temperature;BME280_humidity;BME280_pressure;Samples;Min_cycle;Max_cycle;Signal;HPM_P1;HPM_P2
2021/05/25 00:00:27;;;;;;;6.00;3.08;;;8.20;99.90;;;;;;5017938;28;20037;-67
2021/05/25 00:02:57;;;;;;;5.55;3.13;;;8.20;99.90;;;;;;5032962;28;20132;-67
2021/05/25 00:05:28;;;;;;;;;;;8.20;99.90;;;;;;5017610;28;20057;-65
2021/05/25 00:07:55;;;;;;;5.90;3.30;;;8.20;99.90;;;;;;5017744;28;19929;-67
2021/05/25 00:10:30;;;;;;;5.85;2.95;;;8.30;99.90;;;;;;5015058;28;20042;-68
2021/05/25 00:12:59;;;;;;;9.93;3.35;;;8.30;99.90;;;;;;5017266;28;20053;-68
2021/05/25 00:15:29;;;;;;;4.47;2.65;;;8.20;99.90;;;;;;5015489;28;20605;-67
2021/05/25 00:17:56;;;;;;;6.13;4.53;;;8.20;99.90;;;;;;5017841;28;20099;-67
2021/05/25 00:20:24;;;;;;;7.05;3.53;;;8.20;99.90;;;;;;5020508;28;20045;-67
2021/05/25 00:22:51;;;;;;;3.08;2.78;;;8.20;99.90;;;;;;5013210;28;20048;-66
2021/05/25 00:25:19;;;;;;;5.30;2.97;;;8.20;99.90;;;;;;5018699;28;20056;-67
2021/05/25 00:27:48;;;;;;;3.85;2.22;;;8.20;99.90;;;;;;5016018;28;20112;-67
2021/05/25 00:30:17;;;;;;;2.25;2.05;;;8.20;99.90;;;;;;5022882;28;20786;-68
2021/05/25 00:32:45;;;;;;;2.80;2.38;;;8.20;99.90;;;;;;5017493;28;20048;-68
2021/05/25 00:35:15;;;;;;;5.50;2.90;;;8.20;99.90;;;;;;5023914;28;20056;-69
2021/05/25 00:37:42;;;;;;;3.90;2.70;;;8.20;99.90;;;;;;5018569;28;20635;-68
2021/05/25 00:40:11;;;;;;;6.10;2.85;;;8.30;99.90;;;;;;5022819;28;20041;-66
2021/05/25 00:42:39;;;;;;;4.80;2.45;;;8.30;99.90;;;;;;5015824;28;20053;-68
2021/05/25 00:45:07;;;;;;;6.70;2.95;;;8.30;99.90;;;;;;5020458;28;20578;-67
2021/05/25 00:47:38;;;;;;;2.80;2.40;;;8.30;99.90;;;;;;5017707;28;20048;-66
2021/05/25 00:50:16;;;;;;;5.97;2.15;;;8.30;99.90;;;;;;5022284;28;20100;-67
2021/05/25 00:52:48;;;;;;;3.00;2.28;;;8.40;99.90;;;;;;5016282;28;20060;-67
2021/05/25 00:55:22;;;;;;;3.78;2.22;;;8.40;99.90;;;;;;5023304;28;20140;-67
2021/05/25 00:57:51;;;;;;;4.97;2.92;;;8.40;99.90;;;;;;5017195;28;20045;-66
2021/05/25 01:00:21;;;;;;;2.42;2.17;;;8.40;99.90;;;;;;5022399;28;20131;-67
2021/05/25 01:02:53;;;;;;;3.85;1.88;;;8.40;99.90;;;;;;5020475;28;21445;-66
2021/05/25 01:05:20;;;;;;;5.63;2.72;;;8.40;99.90;;;;;;5016392;28;20049;-66
2021/05/25 01:07:48;;;;;;;3.58;3.28;;;8.50;99.90;;;;;;5020688;28;20403;-67
2021/05/25 01:10:22;;;;;;;2.42;2.15;;;8.50;99.90;;;;;;5021783;28;20053;-68
2021/05/25 01:12:57;;;;;;;2.53;1.95;;;8.50;99.90;;;;;;5018222;28;20049;-67
2021/05/25 01:15:27;;;;;;;3.25;2.30;;;8.50;99.90;;;;;;5020440;28;20053;-66
2021/05/25 01:17:55;;;;;;;5.82;2.28;;;8.60;99.90;;;;;;5020316;28;20046;-66
2021/05/25 01:20:25;;;;;;;2.65;2.45;;;8.60;99.90;;;;;;5018956;28;20045;-66
2021/05/25 01:22:52;;;;;;;3.17;2.25;;;8.70;99.90;;;;;;5019483;28;20104;-66
2021/05/25 01:25:20;;;;;;;6.05;2.65;;;8.70;99.90;;;;;;5018669;28;20104;-66
2021/05/25 01:27:59;;;;;;;3.25;2.05;;;8.70;99.90;;;;;;5020787;28;20475;-66
2021/05/25 01:30:29;;;;;;;4.85;2.70;;;8.80;99.90;;;;;;5021068;28;20037;-66
2021/05/25 01:32:59;;;;;;;3.33;2.03;;;8.80;99.90;;;;;;5016136;28;20072;-68
2021/05/25 01:35:27;;;;;;;3.45;2.47;;;8.90;99.90;;;;;;5019446;28;20463;-67
2021/05/25 01:37:56;;;;;;;2.60;2.05;;;8.90;99.90;;;;;;5019351;28;20446;-65
2021/05/25 01:40:24;;;;;;;3.53;1.98;;;8.90;99.90;;;;;;5019912;28;20054;-65
2021/05/25 01:42:51;;;;;;;2.58;1.88;;;9.00;99.90;;;;;;5022515;28;20046;-66
2021/05/25 01:45:21;;;;;;;1.60;1.50;;;9.00;99.90;;;;;;5014105;28;20053;-66
2021/05/25 01:47:51;;;;;;;3.08;2.00;;;9.00;99.90;;;;;;5018341;28;20132;-66
2021/05/25 01:50:20;;;;;;;3.00;1.95;;;9.10;99.90;;;;;;5018538;28;20047;-65
2021/05/25 01:53:00;;;;;;;2.75;2.55;;;9.10;99.90;;;;;;5022718;28;20045;-68
2021/05/25 01:55:36;;;;;;;;;;;9.10;99.90;;;;;;5018316;28;20048;-66
2021/05/25 01:58:25;;;;;;;6.22;3.15;;;9.10;99.90;;;;;;5024671;28;20595;-67
2021/05/25 02:00:58;;;;;;;2.58;2.35;;;9.10;99.90;;;;;;5017686;28;20053;-65
2021/05/25 02:03:26;;;;;;;6.13;4.43;;;9.10;99.90;;;;;;5013524;28;20095;-66
2021/05/25 02:05:53;;;;;;;7.63;3.70;;;9.10;99.90;;;;;;5021100;28;20149;-66
2021/05/25 02:08:21;;;;;;;11.20;3.65;;;9.10;99.90;;;;;;5020484;28;20068;-66
2021/05/25 02:10:53;;;;;;;3.97;3.50;;;9.10;99.90;;;;;;5019655;28;20053;-66
2021/05/25 02:13:21;;;;;;;3.92;2.95;;;9.10;99.90;;;;;;5017262;28;20044;-67
2021/05/25 02:16:01;;;;;;;7.35;3.72;;;9.10;99.90;;;;;;5019279;28;20056;-65
2021/05/25 02:18:30;;;;;;;3.67;2.83;;;9.10;99.90;;;;;;5018119;28;20046;-65
2021/05/25 02:20:59;;;;;;;6.43;2.50;;;9.10;99.90;;;;;;5019226;28;20037;-66
2021/05/25 02:23:27;;;;;;;3.85;2.72;;;9.10;99.90;;;;;;5017332;28;20049;-66
2021/05/25 02:25:55;;;;;;;2.97;2.63;;;9.10;99.90;;;;;;5014267;28;20453;-66
2021/05/25 02:28:23;;;;;;;3.47;2.45;;;9.10;99.90;;;;;;5015483;28;20065;-65
2021/05/25 02:30:52;;;;;;;4.45;2.78;;;9.10;99.90;;;;;;5019466;28;20146;-67
2021/05/25 02:33:23;;;;;;;6.97;3.13;;;9.10;99.90;;;;;;5013484;28;20064;-67
2021/05/25 02:35:55;;;;;;;4.47;3.20;;;9.10;99.90;;;;;;5017285;28;20115;-66
2021/05/25 02:38:25;;;;;;;3.97;3.10;;;9.10;99.90;;;;;;5013732;28;20037;-67
2021/05/25 02:40:52;;;;;;;;;;;9.10;99.90;;;;;;5017226;28;20041;-66
2021/05/25 02:43:22;;;;;;;6.38;2.80;;;9.10;99.90;;;;;;5017286;28;19925;-66
2021/05/25 02:45:50;;;;;;;4.13;3.20;;;9.10;99.90;;;;;;5015927;28;20045;-66
2021/05/25 02:48:18;;;;;;;5.65;3.72;;;9.10;99.90;;;;;;5017502;28;20069;-67
2021/05/25 02:50:47;;;;;;;6.45;3.22;;;9.20;99.90;;;;;;5017891;28;20049;-66
2021/05/25 02:53:15;;;;;;;6.63;2.42;;;9.20;99.90;;;;;;5014427;28;20719;-66
2021/05/25 02:55:44;;;;;;;5.30;3.80;;;9.20;99.90;;;;;;5018132;28;20513;-66
2021/05/25 02:58:16;;;;;;;2.45;2.25;;;9.20;99.90;;;;;;5017031;28;20044;-65
2021/05/25 03:00:45;;;;;;;5.25;2.78;;;9.30;99.90;;;;;;5011348;28;20038;-68
2021/05/25 03:03:16;;;;;;;8.20;2.58;;;9.30;99.90;;;;;;5015939;28;20045;-68
2021/05/25 03:05:44;;;;;;;4.70;2.50;;;9.30;99.90;;;;;;5017780;28;20053;-66
2021/05/25 03:08:13;;;;;;;6.60;3.05;;;9.30;99.90;;;;;;5019004;28;20481;-66
2021/05/25 03:10:43;;;;;;;4.20;2.20;;;9.40;99.90;;;;;;5015361;28;20064;-68
2021/05/25 03:13:20;;;;;;;4.55;2.67;;;9.40;99.90;;;;;;5014180;28;20041;-65
2021/05/25 03:15:49;;;;;;;2.90;2.67;;;9.50;99.90;;;;;;5016435;28;20041;-66
2021/05/25 03:18:16;;;;;;;5.32;1.90;;;9.50;99.90;;;;;;5018673;28;20149;-66
2021/05/25 03:20:45;;;;;;;3.47;2.00;;;9.50;99.90;;;;;;5010111;28;20116;-66
2021/05/25 03:23:15;;;;;;;3.03;2.27;;;9.50;99.90;;;;;;5017004;28;20034;-65
2021/05/25 03:25:46;;;;;;;5.90;1.88;;;9.50;99.90;;;;;;5017211;28;20067;-67
2021/05/25 03:28:14;;;;;;;5.13;2.40;;;9.60;99.90;;;;;;5010247;28;20441;-66
2021/05/25 03:30:42;;;;;;;2.03;1.55;;;9.60;99.90;;;;;;5019372;28;20038;-66
2021/05/25 03:33:12;;;;;;;2.65;1.95;;;9.60;99.90;;;;;;5020063;28;20042;-68
2021/05/25 03:35:39;;;;;;;3.55;2.22;;;9.60;99.90;;;;;;5014747;28;20088;-66
2021/05/25 03:38:06;;;;;;;3.72;2.17;;;9.70;99.90;;;;;;5017893;28;20052;-66
2021/05/25 03:40:33;;;;;;;4.57;2.30;;;9.70;99.90;;;;;;5016678;28;20037;-68
2021/05/25 03:43:04;;;;;;;2.65;2.45;;;9.70;99.90;;;;;;5017467;28;20075;-65
2021/05/25 03:45:32;;;;;;;2.38;1.77;;;9.70;99.90;;;;;;5017955;28;20029;-65
2021/05/25 03:48:03;;;;;;;3.45;1.67;;;9.70;99.90;;;;;;5016959;28;20487;-66
2021/05/25 03:50:31;;;;;;;1.65;1.55;;;9.80;99.90;;;;;;5019183;28;20049;-68
2021/05/25 03:52:59;;;;;;;4.57;2.15;;;9.80;99.90;;;;;;5012073;28;20143;-66
2021/05/25 03:55:37;;;;;;;4.05;1.55;;;9.90;99.90;;;;;;5011137;28;20048;-65
2021/05/25 04:00:55;;;;;;;5.15;1.60;;;10.00;99.90;;;;;;5015251;28;20052;-67
2021/05/25 04:03:23;;;;;;;3.78;2.88;;;10.00;99.90;;;;;;5017617;28;20045;-66
2021/05/25 04:05:50;;;;;;;2.28;1.60;;;10.00;99.90;;;;;;5015637;28;20053;-66
2021/05/25 04:08:20;;;;;;;3.20;1.70;;;10.10;99.90;;;;;;5017080;28;20037;-66
2021/05/25 04:10:49;;;;;;;4.90;1.83;;;10.10;99.90;;;;;;5012859;28;20065;-68
2021/05/25 04:13:19;;;;;;;3.72;1.85;;;10.20;99.90;;;;;;5016672;28;20064;-67
2021/05/25 04:15:48;;;;;;;3.20;1.60;;;10.20;99.90;;;;;;5016310;28;20699;-67
2021/05/25 04:18:15;;;;;;;4.35;1.77;;;10.30;99.90;;;;;;5019724;28;20108;-66
2021/05/25 04:20:42;;;;;;;2.97;1.67;;;10.40;99.90;;;;;;5016032;28;20053;-65
2021/05/25 04:23:09;;;;;;;2.72;1.55;;;10.40;99.90;;;;;;5012340;28;20057;-67
2021/05/25 04:25:36;;;;;;;2.25;1.85;;;10.40;99.90;;;;;;5012789;28;20045;-66
2021/05/25 04:28:04;;;;;;;3.80;1.90;;;10.50;99.90;;;;;;5016534;28;20567;-65
2021/05/25 04:30:34;;;;;;;2.10;1.90;;;10.50;99.90;;;;;;5017623;28;20057;-66
2021/05/25 04:33:02;;;;;;;1.88;1.25;;;10.60;99.90;;;;;;5019098;28;20042;-68
2021/05/25 04:35:31;;;;;;;5.90;2.30;;;10.60;99.90;;;;;;5016119;28;20072;-66
2021/05/25 04:37:58;;;;;;;3.92;2.47;;;10.70;99.90;;;;;;5014468;28;20538;-66
2021/05/25 04:40:27;;;;;;;2.05;1.77;;;10.80;99.90;;;;;;5045349;28;20048;-66
2021/05/25 04:42:54;;;;;;;9.00;2.88;;;10.80;99.90;;;;;;5019847;28;20067;-67
2021/05/25 04:45:24;;;;;;;3.53;2.10;;;10.90;99.90;;;;;;5013989;28;20053;-68
2021/05/25 04:48:04;;;;;;;;;;;;;;;;;;;;;
2021/05/25 04:50:32;;;;;;;5.30;1.80;;;11.00;99.90;;;;;;5014851;28;20058;-66
2021/05/25 04:53:03;;;;;;;4.10;3.08;;;11.00;99.90;;;;;;5016941;28;20070;-65
2021/05/25 04:55:32;;;;;;;2.58;1.75;;;11.10;99.90;;;;;;5013315;28;20367;-65
2021/05/25 04:57:59;;;;;;;3.67;1.60;;;11.10;99.90;;;;;;5015232;28;20057;-68
2021/05/25 05:00:27;;;;;;;161.00;84.60;;;11.20;99.90;;;;;;5015903;28;20046;-65
2021/05/25 05:02:55;;;;;;;21.33;14.10;;;11.20;99.90;;;;;;5018122;28;20061;-65
2021/05/25 05:05:25;;;;;;;;;;;11.30;99.90;;;;;;5016057;28;20522;-66
2021/05/25 05:07:53;;;;;;;6.72;3.88;;;11.40;99.90;;;;;;5012508;28;19924;-67
2021/05/25 05:10:22;;;;;;;;;;;11.40;99.90;;;;;;5014980;28;20046;-66
2021/05/25 05:12:52;;;;;;;3.63;2.15;;;11.50;99.90;;;;;;5023331;28;20413;-65
2021/05/25 05:15:19;;;;;;;5.72;2.25;;;11.50;99.90;;;;;;5020689;28;20349;-64
2021/05/25 05:17:50;;;;;;;5.80;2.10;;;11.60;99.90;;;;;;5022701;28;20045;-65
2021/05/25 05:20:18;;;;;;;6.35;2.58;;;11.60;99.90;;;;;;5021860;28;20037;-67
2021/05/25 05:22:48;;;;;;;5.32;1.90;;;11.70;99.90;;;;;;5022932;28;20396;-66
2021/05/25 05:25:15;;;;;;;2.42;1.75;;;11.70;99.90;;;;;;5019628;28;20123;-66
2021/05/25 05:27:42;;;;;;;2.83;2.08;;;11.70;99.90;;;;;;5021224;28;20108;-64
2021/05/25 05:30:10;;;;;;;2.88;1.73;;;11.70;99.90;;;;;;5021521;28;20057;-66
2021/05/25 05:32:37;;;;;;;4.43;2.35;;;11.80;99.90;;;;;;5022359;28;20597;-66
2021/05/25 05:35:08;;;;;;;;;;;11.90;99.90;;;;;;5023551;28;20705;-66
2021/05/25 05:37:35;;;;;;;8.20;2.67;;;11.90;99.90;;;;;;5020113;28;19933;-65
2021/05/25 05:40:04;;;;;;;4.80;2.40;;;11.90;99.90;;;;;;5025245;28;20056;-66
2021/05/25 05:42:55;;;;;;;7.68;2.50;;;12.00;99.90;;;;;;5018546;28;20067;-66
2021/05/25 05:45:22;;;;;;;2.70;2.22;;;12.00;99.90;;;;;;5021711;28;20080;-65
2021/05/25 05:47:52;;;;;;;9.45;2.05;;;12.00;99.90;;;;;;5019014;28;20548;-64
2021/05/25 05:50:19;;;;;;;4.50;1.65;;;12.10;99.90;;;;;;5022049;28;20053;-68
2021/05/25 05:52:46;;;;;;;9.32;3.25;;;12.20;99.90;;;;;;5020793;28;20053;-67
2021/05/25 05:55:15;;;;;;;8.90;2.28;;;12.20;99.90;;;;;;5022583;28;20049;-65
2021/05/25 05:57:42;;;;;;;3.05;2.03;;;12.20;99.90;;;;;;5011793;28;20065;-65
2021/05/25 06:00:12;;;;;;;5.10;2.38;;;12.30;99.90;;;;;;5001168;28;20049;-65
2021/05/25 06:02:47;;;;;;;2.80;1.77;;;12.30;99.90;;;;;;5018329;28;20045;-67
2021/05/25 06:05:15;;;;;;;3.67;2.72;;;12.40;99.90;;;;;;5023145;28;20053;-65
2021/05/25 06:07:42;;;;;;;2.60;2.15;;;12.50;99.90;;;;;;5017528;28;20049;-65
2021/05/25 06:10:10;;;;;;;6.15;2.47;;;12.60;99.90;;;;;;5023671;28;20053;-67
2021/05/25 06:12:53;;;;;;;4.30;3.23;;;12.70;99.90;;;;;;2172757;28;10023566;-65
2021/05/25 06:15:20;;;;;;;3.58;1.98;;;12.70;99.90;;;;;;3631665;28;10002046;-65
2021/05/25 06:17:47;;;;;;;3.13;2.15;;;12.80;99.90;;;;;;5018329;28;20045;-66
2021/05/25 06:20:15;;;;;;;5.72;2.03;;;12.90;99.90;;;;;;5022495;28;20041;-66
2021/05/25 06:22:45;;;;;;;6.53;2.72;;;12.90;99.90;;;;;;5019634;28;20542;-65
2021/05/25 06:25:14;;;;;;;6.28;2.45;;;13.00;99.90;;;;;;5022360;28;20499;-64
2021/05/25 06:27:43;;;;;;;3.15;2.35;;;13.00;99.90;;;;;;5016849;28;20153;-66
2021/05/25 06:30:13;;;;;;;5.45;2.53;;;13.10;99.90;;;;;;5022744;28;20096;-65
2021/05/25 06:32:40;;;;;;;3.63;1.92;;;13.20;99.90;;;;;;5018877;28;20049;-66
2021/05/25 06:35:08;;;;;;;3.60;1.92;;;13.20;99.90;;;;;;5024013;28;20050;-66
2021/05/25 06:37:34;;;;;;;3.47;2.55;;;13.30;99.90;;;;;;5049480;28;20772;-64
2021/05/25 06:40:02;;;;;;;2.25;2.05;;;13.30;99.90;;;;;;5025127;28;20063;-64
2021/05/25 06:42:31;;;;;;;5.18;2.70;;;13.30;99.90;;;;;;5019920;28;20114;-66
2021/05/25 06:44:59;;;;;;;3.17;2.20;;;13.30;99.90;;;;;;5023044;28;20049;-64
2021/05/25 06:47:33;;;;;;;4.95;2.17;;;13.30;99.90;;;;;;5015688;28;20132;-65
2021/05/25 06:50:03;;;;;;;2.60;2.40;;;13.40;99.90;;;;;;5024159;28;20045;-67
2021/05/25 06:52:35;;;;;;;5.25;2.50;;;13.40;99.90;;;;;;5016973;28;20059;-65
2021/05/25 06:55:05;;;;;;;5.95;2.42;;;13.40;99.90;;;;;;5021571;28;20048;-65
2021/05/25 06:57:32;;;;;;;4.22;2.80;;;13.40;99.90;;;;;;5019049;28;20049;-65
2021/05/25 06:59:59;;;;;;;3.63;2.72;;;13.40;99.90;;;;;;5022256;28;20045;-65
2021/05/25 07:02:42;;;;;;;4.85;2.17;;;13.40;99.90;;;;;;5018866;28;20033;-65
2021/05/25 07:05:12;;;;;;;3.83;2.20;;;13.50;99.90;;;;;;5019214;28;20052;-65
2021/05/25 07:07:39;;;;;;;5.07;3.40;;;13.60;99.90;;;;;;5018541;28;20052;-65
2021/05/25 07:10:07;;;;;;;4.82;2.80;;;13.70;99.90;;;;;;5020705;28;20222;-65
2021/05/25 07:12:34;;;;;;;5.07;2.90;;;13.70;99.90;;;;;;5017514;28;20157;-65
2021/05/25 07:15:05;;;;;;;2.55;2.30;;;13.80;99.90;;;;;;5018107;28;20061;-65
2021/05/25 07:17:32;;;;;;;4.68;2.63;;;13.80;99.90;;;;;;5018925;28;20055;-65
2021/05/25 07:20:02;;;;;;;10.05;2.90;;;13.90;99.90;;;;;;5022236;28;20145;-65
2021/05/25 07:22:33;;;;;;;6.38;2.13;;;13.90;99.90;;;;;;5013182;28;20048;-65
2021/05/25 07:25:03;;;;;;;4.25;2.70;;;13.90;99.90;;;;;;5016025;28;20063;-67
2021/05/25 07:27:33;;;;;;;5.80;2.20;;;13.90;99.90;;;;;;5015968;28;20063;-64
2021/05/25 07:30:02;;;;;;;5.00;2.65;;;13.90;99.90;;;;;;5022440;28;20056;-66
2021/05/25 07:32:29;;;;;;;6.30;2.42;;;13.90;99.90;;;;;;5021288;28;20173;-65
2021/05/25 07:34:56;;;;;;;7.85;2.53;;;13.90;99.90;;;;;;5019874;28;20046;-65
2021/05/25 07:37:23;;;;;;;3.53;2.17;;;14.00;99.90;;;;;;5019622;28;20099;-65
2021/05/25 07:39:50;;;;;;;4.38;3.00;;;14.00;99.90;;;;;;5019802;28;20068;-65
2021/05/25 07:42:17;;;;;;;3.92;2.05;;;14.10;99.90;;;;;;5022200;28;20502;-66
2021/05/25 07:44:45;;;;;;;4.95;2.17;;;14.20;99.90;;;;;;5018756;28;20053;-64
2021/05/25 07:47:12;;;;;;;3.92;2.88;;;14.20;99.90;;;;;;5019949;28;20103;-65
2021/05/25 07:49:39;;;;;;;7.57;2.90;;;14.30;99.90;;;;;;5018645;28;20052;-66
2021/05/25 07:52:06;;;;;;;4.60;2.78;;;14.40;99.90;;;;;;5021023;28;20073;-65
2021/05/25 07:54:33;;;;;;;7.22;2.72;;;14.50;99.90;;;;;;5017944;28;20111;-65
2021/05/25 07:57:03;;;;;;;4.18;2.45;;;14.60;99.90;;;;;;5021178;28;20122;-65
2021/05/25 07:59:30;;;;;;;4.25;3.13;;;14.70;99.90;;;;;;5016192;28;20376;-65
2021/05/25 08:01:59;;;;;;;3.35;2.60;;;14.80;99.90;;;;;;5021113;28;20138;-65
2021/05/25 08:04:33;;;;;;;7.85;2.60;;;14.80;99.90;;;;;;5015252;28;20048;-65
2021/05/25 08:06:59;;;;;;;5.57;3.08;;;14.80;99.90;;;;;;5018505;28;20038;-65
2021/05/25 08:09:26;;;;;;;6.30;2.33;;;14.80;99.90;;;;;;5017248;28;20049;-66
2021/05/25 08:11:53;;;;;;;4.50;2.30;;;14.80;99.90;;;;;;5012791;28;20099;-67
2021/05/25 08:14:20;;;;;;;6.60;4.65;;;14.80;99.90;;;;;;5020297;28;20045;-66
2021/05/25 08:16:47;;;;;;;4.85;2.03;;;14.80;99.90;;;;;;5019518;28;20490;-65
2021/05/25 08:19:28;;;;;;;3.72;2.20;;;14.80;99.90;;;;;;5020554;28;20057;-66
2021/05/25 08:21:56;;;;;;;4.90;2.58;;;14.80;99.90;;;;;;5016182;28;20049;-65
2021/05/25 08:24:42;;;;;;;3.38;2.53;;;14.80;99.90;;;;;;5019712;28;20041;-64
2021/05/25 08:27:11;;;;;;;4.65;2.90;;;14.80;99.90;;;;;;5019105;28;20091;-66
2021/05/25 08:30:09;;;;;;;4.45;2.95;;;14.80;99.90;;;;;;5016938;28;20139;-64
2021/05/25 08:32:40;;;;;;;4.25;2.03;;;15.00;99.90;;;;;;5019287;28;20045;-65
2021/05/25 08:35:11;;;;;;;6.20;2.30;;;15.00;99.90;;;;;;5018502;28;20052;-64
2021/05/25 08:37:39;;;;;;;4.30;2.78;;;15.00;99.90;;;;;;5013576;28;20044;-65
2021/05/25 08:40:11;;;;;;;5.53;2.08;;;15.00;99.90;;;;;;5016259;28;20042;-67
2021/05/25 08:42:38;;;;;;;6.20;2.63;;;15.00;99.90;;;;;;5016239;28;20466;-66
2021/05/25 08:45:09;;;;;;;4.82;3.05;;;15.00;99.90;;;;;;5015122;28;20158;-67
2021/05/25 08:47:41;;;;;;;4.07;2.35;;;14.90;99.90;;;;;;5019397;28;20101;-65
2021/05/25 08:50:10;;;;;;;2.70;2.50;;;14.90;99.90;;;;;;5025337;28;20049;-65
2021/05/25 08:52:37;;;;;;;5.67;2.90;;;14.90;99.90;;;;;;5020221;28;20099;-67
2021/05/25 08:55:07;;;;;;;4.68;2.78;;;14.90;99.90;;;;;;5020778;28;20088;-67
2021/05/25 08:57:38;;;;;;;5.03;2.95;;;14.90;99.90;;;;;;5018522;28;20057;-65
2021/05/25 09:00:09;;;;;;;5.13;2.95;;;14.80;99.90;;;;;;5020606;28;20391;-66
2021/05/25 09:02:39;;;;;;;4.97;3.67;;;14.70;99.90;;;;;;5020225;28;20041;-64
2021/05/25 09:05:15;;;;;;;3.92;2.53;;;14.50;99.90;;;;;;5021002;28;20282;-64
2021/05/25 09:07:51;;;;;;;3.65;3.17;;;14.50;99.90;;;;;;5016671;28;20102;-66
2021/05/25 09:10:20;;;;;;;3.08;2.78;;;14.50;99.90;;;;;;5024912;28;20138;-65
2021/05/25 09:12:52;;;;;;;4.78;3.00;;;14.50;99.90;;;;;;5019037;28;20104;-65
2021/05/25 09:15:53;;;;;;;4.40;3.40;;;14.50;99.90;;;;;;5018459;28;20148;-65
2021/05/25 09:18:28;;;;;;;5.43;3.67;;;14.50;99.90;;;;;;5014394;28;20060;-65
2021/05/25 09:21:01;;;;;;;21.42;5.65;;;14.60;99.90;;;;;;5022316;28;20881;-67
2021/05/25 09:23:34;;;;;;;4.15;3.75;;;14.50;99.90;;;;;;5019526;28;20118;-65
2021/05/25 09:26:05;;;;;;;7.28;3.58;;;14.50;99.90;;;;;;5015148;28;20038;-67
2021/05/25 09:28:33;;;;;;;4.50;3.50;;;14.50;99.90;;;;;;5021693;28;20049;-66
2021/05/25 09:31:05;;;;;;;5.50;3.10;;;14.50;99.90;;;;;;5021020;28;20041;-68
2021/05/25 09:33:32;;;;;;;4.82;3.00;;;14.50;99.90;;;;;;5021036;28;20053;-66
2021/05/25 09:36:10;;;;;;;4.22;3.00;;;14.60;99.90;;;;;;5015716;28;20045;-67
2021/05/25 09:38:38;;;;;;;5.82;3.05;;;14.60;99.90;;;;;;5021504;28;20147;-67
2021/05/25 09:41:05;;;;;;;4.88;4.45;;;14.80;99.90;;;;;;5016521;28;20103;-67
2021/05/25 09:43:36;;;;;;;101.22;37.33;;;14.90;99.90;;;;;;5014374;28;20475;-67
2021/05/25 09:46:18;;;;;;;8.93;4.72;;;15.00;99.90;;;;;;5017066;28;20045;-68
2021/05/25 09:48:45;;;;;;;9.00;3.97;;;15.10;99.90;;;;;;5019542;28;20062;-68
2021/05/25 09:51:33;;;;;;;9.90;4.18;;;15.20;99.90;;;;;;5018976;28;20060;-68
2021/05/25 09:54:02;;;;;;;3.75;3.45;;;15.10;99.90;;;;;;5016250;28;20046;-68
2021/05/25 09:56:31;;;;;;;12.02;3.63;;;15.00;99.90;;;;;;5017834;28;20041;-67
2021/05/25 09:59:39;;;;;;;4.10;2.65;;;15.00;99.90;;;;;;5017341;28;20472;-69
2021/05/25 10:02:20;;;;;;;3.85;3.20;;;14.90;99.90;;;;;;5021048;28;20046;-68
2021/05/25 10:05:01;;;;;;;7.13;3.85;;;14.80;99.90;;;;;;5050141;28;20524;-71
2021/05/25 10:07:28;;;;;;;6.43;3.72;;;14.80;99.90;;;;;;5014759;28;20294;-67
2021/05/25 10:09:57;;;;;;;3.83;2.70;;;14.60;99.90;;;;;;5020481;28;20044;-67
2021/05/25 10:12:27;;;;;;;5.60;4.25;;;14.60;99.90;;;;;;5021001;28;20357;-67
2021/05/25 10:14:55;;;;;;;4.43;2.85;;;14.50;99.90;;;;;;5019278;28;20510;-67
2021/05/25 10:20:09;;;;;;;3.80;2.50;;;14.50;99.90;;;;;;5020659;28;20049;-66
2021/05/25 10:22:42;;;;;;;3.55;2.95;;;14.60;99.90;;;;;;5020714;28;20061;-67
2021/05/25 10:25:16;;;;;;;3.45;3.15;;;14.50;99.90;;;;;;5018422;28;20100;-68
2021/05/25 10:27:48;;;;;;;9.82;4.00;;;14.40;99.90;;;;;;5020069;28;20049;-68
2021/05/25 10:30:23;;;;;;;3.88;3.47;;;14.30;99.90;;;;;;5019355;28;20053;-67
2021/05/25 10:33:13;;;;;;;6.30;3.83;;;14.40;99.90;;;;;;5021262;28;20053;-67
2021/05/25 10:35:53;;;;;;;4.83;3.27;;;14.50;99.90;;;;;;5016269;28;20611;-67
2021/05/25 10:38:21;;;;;;;;;;;14.50;99.90;;;;;;5018416;28;20048;-67
2021/05/25 10:40:51;;;;;;;4.00;3.67;;;14.50;99.90;;;;;;5018254;28;20394;-68
2021/05/25 10:43:44;;;;;;;5.25;4.28;;;14.40;99.90;;;;;;5018258;28;20048;-68
2021/05/25 10:46:11;;;;;;;5.85;4.43;;;14.30;99.90;;;;;;5017551;28;20041;-69
2021/05/25 10:49:05;;;;;;;6.78;5.50;;;14.30;99.90;;;;;;5019724;28;20107;-67
2021/05/25 10:51:51;;;;;;;4.68;4.18;;;14.30;99.90;;;;;;5018327;28;20067;-67
2021/05/25 10:54:43;;;;;;;6.68;3.97;;;14.30;99.90;;;;;;5017754;28;20128;-68
2021/05/25 10:57:49;;;;;;;5.05;4.50;;;14.30;99.90;;;;;;5017320;28;20049;-66
2021/05/25 11:00:29;;;;;;;6.03;4.40;;;14.40;99.90;;;;;;5011658;28;20471;-68
2021/05/25 11:02:59;;;;;;;5.05;4.57;;;14.40;99.90;;;;;;5018475;28;20111;-66
2021/05/25 11:05:26;;;;;;;;;;;14.40;99.90;;;;;;5017929;28;20057;-66
2021/05/25 11:07:54;;;;;;;6.13;5.53;;;14.30;99.90;;;;;;5017562;28;19925;-69
2021/05/25 11:10:27;;;;;;;5.30;4.80;;;14.30;99.90;;;;;;5020241;28;20349;-69
2021/05/25 11:13:17;;;;;;;5.38;4.80;;;14.30;99.90;;;;;;5012527;28;20510;-67
2021/05/25 11:16:17;;;;;;;7.30;4.65;;;14.30;99.90;;;;;;5017238;28;20386;-67
2021/05/25 11:24:33;;;;;;;5.63;4.57;;;14.30;99.90;;;;;;5019468;28;20054;-68
2021/05/25 11:27:23;;;;;;;5.78;4.45;;;14.40;99.90;;;;;;5017651;28;20037;-67
2021/05/25 11:29:55;;;;;;;7.60;4.85;;;14.40;99.90;;;;;;5015998;28;20407;-67
2021/05/25 11:32:27;;;;;;;6.07;4.13;;;14.40;99.90;;;;;;5019351;28;20046;-66
2021/05/25 11:35:04;;;;;;;4.93;4.22;;;14.30;99.90;;;;;;5020025;28;20060;-67
2021/05/25 11:37:34;;;;;;;5.28;4.78;;;14.10;99.90;;;;;;5018204;28;20132;-67
2021/05/25 11:40:07;;;;;;;7.22;4.55;;;14.00;99.90;;;;;;5017056;28;20057;-67
2021/05/25 11:42:37;;;;;;;8.32;4.47;;;13.90;99.90;;;;;;5019478;28;20295;-67
2021/05/25 11:45:09;;;;;;;4.55;4.20;;;13.90;99.90;;;;;;5018585;28;20503;-67
2021/05/25 11:47:37;;;;;;;9.93;5.07;;;13.90;99.90;;;;;;5015457;28;20046;-69
2021/05/25 11:50:05;;;;;;;5.70;4.10;;;13.90;99.90;;;;;;5016572;28;20037;-67
2021/05/25 11:52:51;;;;;;;4.32;3.95;;;13.90;99.90;;;;;;5018754;28;20045;-67
2021/05/25 11:55:21;;;;;;;4.20;3.50;;;13.90;99.90;;;;;;5017698;28;20127;-67
2021/05/25 11:57:52;;;;;;;4.95;3.47;;;13.70;99.90;;;;;;5019694;28;20037;-68
2021/05/25 12:00:28;;;;;;;5.13;4.28;;;13.60;99.90;;;;;;5017797;28;20049;-67
2021/05/25 12:02:56;;;;;;;5.43;4.15;;;13.60;99.90;;;;;;5020909;28;20073;-66
2021/05/25 12:05:28;;;;;;;6.72;3.65;;;13.60;99.90;;;;;;5019775;28;20064;-67
2021/05/25 12:07:55;;;;;;;4.53;4.07;;;13.60;99.90;;;;;;5018133;28;20215;-67
2021/05/25 12:10:28;;;;;;;3.97;3.67;;;13.60;99.90;;;;;;5018770;28;20125;-68
2021/05/25 12:13:18;;;;;;;6.95;4.10;;;13.60;99.90;;;;;;5014934;28;20452;-67
2021/05/25 12:15:53;;;;;;;7.25;4.07;;;13.60;99.90;;;;;;5013327;28;20045;-67
2021/05/25 12:18:27;;;;;;;13.50;4.55;;;13.50;99.90;;;;;;5014377;28;20080;-69
2021/05/25 12:20:56;;;;;;;4.75;3.42;;;13.50;99.90;;;;;;5014155;28;20491;-67
2021/05/25 12:23:28;;;;;;;9.27;3.80;;;13.50;99.90;;;;;;5018013;28;20053;-68
2021/05/25 12:26:11;;;;;;;5.47;4.68;;;13.40;99.90;;;;;;5011647;28;20054;-68
2021/05/25 12:28:39;;;;;;;5.25;4.75;;;13.40;99.90;;;;;;5017580;28;20048;-68
2021/05/25 12:31:08;;;;;;;6.28;4.63;;;13.50;99.90;;;;;;5018349;28;20277;-67
2021/05/25 12:33:37;;;;;;;5.57;4.20;;;13.50;99.90;;;;;;5017842;28;20103;-67
2021/05/25 12:36:24;;;;;;;4.70;3.63;;;13.60;99.90;;;;;;5017489;28;20056;-67
2021/05/25 12:39:07;;;;;;;4.10;3.58;;;13.70;99.90;;;;;;5013504;28;20042;-69
2021/05/25 12:41:50;;;;;;;5.22;3.55;;;13.70;99.90;;;;;;5015421;28;20460;-67
2021/05/25 12:44:26;;;;;;;5.05;4.45;;;13.70;99.90;;;;;;5020076;28;20060;-67
2021/05/25 12:47:02;;;;;;;4.78;3.45;;;13.70;99.90;;;;;;5016928;28;20141;-67
2021/05/25 12:49:41;;;;;;;4.30;3.60;;;13.70;99.90;;;;;;5020266;28;20045;-67
2021/05/25 12:52:25;;;;;;;4.60;4.20;;;13.60;99.90;;;;;;5017235;28;20428;-67
2021/05/25 12:55:12;;;;;;;7.18;4.20;;;13.60;99.90;;;;;;5013447;28;20163;-66
2021/05/25 12:57:48;;;;;;;6.22;3.45;;;13.60;99.90;;;;;;5015593;28;20601;-66
2021/05/25 13:00:27;;;;;;;6.60;4.15;;;13.60;99.90;;;;;;5011765;28;20559;-67
2021/05/25 13:02:55;;;;;;;5.70;3.97;;;13.50;99.90;;;;;;5018540;28;20073;-66
2021/05/25 13:05:28;;;;;;;4.78;3.50;;;13.40;99.90;;;;;;5017152;28;20045;-68
2021/05/25 13:08:09;;;;;;;9.15;4.93;;;13.30;99.90;;;;;;5017788;28;20050;-68
2021/05/25 13:13:12;;;;;;;4.75;4.35;;;13.30;99.90;;;;;;5018377;28;20049;-67
2021/05/25 13:15:50;;;;;;;7.97;3.95;;;13.20;99.90;;;;;;5018171;28;20083;-67
2021/05/25 13:18:19;;;;;;;6.03;4.35;;;13.10;99.90;;;;;;5017265;28;20041;-67
2021/05/25 13:20:48;;;;;;;6.95;4.80;;;13.10;99.90;;;;;;5017298;28;20065;-67
2021/05/25 13:23:23;;;;;;;;;;;13.10;99.90;;;;;;5018894;28;20053;-67
2021/05/25 13:26:20;;;;;;;7.70;4.70;;;13.10;99.90;;;;;;5017085;28;19924;-67
2021/05/25 13:28:55;;;;;;;7.28;5.28;;;13.10;99.90;;;;;;5014268;28;20041;-68